createdAt,value
2022-09-28T00:01:14.942Z,0.40
2022-09-28T00:03:41.306Z,0.55
2022-09-28T00:06:10.253Z,0.50
2022-09-28T00:08:36.937Z,0.40
2022-09-28T00:11:05.802Z,0.50
2022-09-28T00:13:34.065Z,0.57
2022-09-28T00:16:04.697Z,0.43
2022-09-28T00:18:32.200Z,0.55
2022-09-28T00:21:04.703Z,0.50
2022-09-28T00:23:31.525Z,0.70
2022-09-28T00:26:03.326Z,0.60
2022-09-28T00:28:29.827Z,0.60
2022-09-28T00:30:56.512Z,0.73
2022-09-28T00:33:32.019Z,0.77
2022-09-28T00:35:58.855Z,0.60
2022-09-28T00:38:29.426Z,0.50
2022-09-28T00:40:56.024Z,0.80
2022-09-28T00:43:23.696Z,0.50
2022-09-28T00:46:06.478Z,0.38
2022-09-28T00:48:37.585Z,0.40
2022-09-28T00:51:09.124Z,0.57
2022-09-28T00:53:37.794Z,0.40
2022-09-28T00:56:11.335Z,0.60
2022-09-28T00:58:48.926Z,0.50
2022-09-28T01:01:15.701Z,0.60
2022-09-28T01:03:45.339Z,0.75
2022-09-28T01:06:18.153Z,0.50
2022-09-28T01:08:46.895Z,0.30
2022-09-28T01:11:13.286Z,0.50
2022-09-28T01:13:41.053Z,0.47
2022-09-28T01:16:30.512Z,0.60
2022-09-28T01:19:25.014Z,0.30
2022-09-28T01:22:29.117Z,0.50
2022-09-28T01:25:39.678Z,0.55
2022-09-28T01:28:18.152Z,0.40
2022-09-28T01:30:56.405Z,0.50
2022-09-28T01:33:27.104Z,0.47
2022-09-28T01:35:59.728Z,0.70
2022-09-28T01:38:33.599Z,0.40
2022-09-28T01:41:00.592Z,0.52
2022-09-28T01:43:28.945Z,0.50
2022-09-28T01:46:07.448Z,0.50
2022-09-28T01:49:10.976Z,0.47
2022-09-28T01:51:55.416Z,0.50
2022-09-28T01:54:46.191Z,0.63
2022-09-28T01:57:21.941Z,0.43
2022-09-28T02:00:15.797Z,0.57
2022-09-28T02:03:10.953Z,0.40
2022-09-28T02:05:40.424Z,0.50
2022-09-28T02:08:19.972Z,0.50
2022-09-28T02:10:56.003Z,0.50
2022-09-28T02:13:29.727Z,0.73
2022-09-28T02:16:04.497Z,0.70
2022-09-28T02:18:31.467Z,0.50
2022-09-28T02:21:17.846Z,0.60
2022-09-28T02:23:56.246Z,0.60
2022-09-28T02:26:29.515Z,0.63
2022-09-28T02:28:55.881Z,0.60
2022-09-28T02:31:22.361Z,0.52
2022-09-28T02:33:50.961Z,0.50
2022-09-28T02:36:17.521Z,0.47
2022-09-28T02:38:43.935Z,0.82
2022-09-28T02:41:48.779Z,0.47
2022-09-28T02:44:40.814Z,0.52
2022-09-28T02:47:24.809Z,0.40
2022-09-28T02:50:17.342Z,0.40
2022-09-28T02:53:11.890Z,0.30
2022-09-28T02:56:12.462Z,0.45
2022-09-28T02:59:04.093Z,0.40
2022-09-28T03:01:36.386Z,0.22
2022-09-28T03:04:35.023Z,0.30
2022-09-28T03:07:07.468Z,0.30
2022-09-28T03:09:50.907Z,0.50
2022-09-28T03:12:23.030Z,0.65
2022-09-28T03:15:06.324Z,0.50
2022-09-28T03:17:32.757Z,0.90
2022-09-28T03:19:59.128Z,0.30
2022-09-28T03:22:26.521Z,0.50
2022-09-28T03:24:52.919Z,0.50
2022-09-28T03:27:19.285Z,0.40
2022-09-28T03:29:45.637Z,0.60
2022-09-28T03:32:12.010Z,0.40
2022-09-28T03:34:38.393Z,0.70
2022-09-28T03:37:04.759Z,0.50
2022-09-28T03:39:31.147Z,0.68
2022-09-28T03:42:00.521Z,0.57
2022-09-28T03:44:27.911Z,0.60
2022-09-28T03:46:54.273Z,0.70
2022-09-28T03:49:20.790Z,0.60
2022-09-28T03:51:47.269Z,0.43
2022-09-28T03:54:13.767Z,0.60
2022-09-28T03:56:41.155Z,0.57
2022-09-28T03:59:07.520Z,0.60
2022-09-28T04:01:33.947Z,0.50
2022-09-28T04:04:00.521Z,0.70
2022-09-28T04:06:27.106Z,0.82
2022-09-28T04:08:55.555Z,0.60
2022-09-28T04:11:24.203Z,0.55
2022-09-28T04:13:50.730Z,1.00
2022-09-28T04:16:18.449Z,1.10
2022-09-28T04:18:47.073Z,2.70
2022-09-28T04:21:16.778Z,0.93
2022-09-28T04:23:43.301Z,0.95
2022-09-28T04:26:20.857Z,0.88
2022-09-28T04:29:07.007Z,0.50
2022-09-28T04:31:42.742Z,0.40
2022-09-28T04:34:09.359Z,0.50
2022-09-28T04:36:35.786Z,0.40
2022-09-28T04:39:02.161Z,0.70
2022-09-28T04:41:28.529Z,0.20
2022-09-28T04:43:54.982Z,0.30
2022-09-28T04:46:40.052Z,0.47
2022-09-28T04:49:09.570Z,0.30
2022-09-28T04:51:36.067Z,0.20
2022-09-28T04:54:07.411Z,0.25
2022-09-28T04:56:33.803Z,0.10
2022-09-28T04:59:00.211Z,0.20
2022-09-28T05:01:26.680Z,0.20
2022-09-28T05:03:53.155Z,0.10
2022-09-28T05:06:19.927Z,0.22
2022-09-28T05:08:47.174Z,0.20
2022-09-28T05:11:14.754Z,0.13
2022-09-28T05:13:43.385Z,0.50
2022-09-28T05:16:10.294Z,0.70
2022-09-28T05:18:36.681Z,0.50
2022-09-28T05:21:04.055Z,0.40
2022-09-28T05:23:30.500Z,0.30
2022-09-28T05:25:56.976Z,0.28
2022-09-28T05:28:29.765Z,0.52
2022-09-28T05:31:05.947Z,0.30
2022-09-28T05:33:33.101Z,0.35
2022-09-28T05:36:01.459Z,0.20
2022-09-28T05:38:30.450Z,0.40
2022-09-28T05:40:57.643Z,0.30
2022-09-28T05:43:24.138Z,0.22
2022-09-28T05:45:55.358Z,0.38
2022-09-28T05:48:22.277Z,0.20
2022-09-28T05:50:52.673Z,0.20
2022-09-28T05:53:19.880Z,0.10
2022-09-28T05:55:46.390Z,0.20
2022-09-28T05:58:12.984Z,0.10
2022-09-28T06:00:40.404Z,0.30
2022-09-28T06:03:10.663Z,0.20
2022-09-28T06:05:39.235Z,0.20
2022-09-28T06:08:08.410Z,0.20
2022-09-28T06:10:35.323Z,0.28
2022-09-28T06:13:02.038Z,0.20
2022-09-28T06:15:30.920Z,0.30
2022-09-28T06:18:02.391Z,0.17
2022-09-28T06:20:31.355Z,0.50
2022-09-28T06:22:57.734Z,0.50
2022-09-28T06:25:25.822Z,0.52
2022-09-28T06:28:02.770Z,0.40
2022-09-28T06:30:31.211Z,0.40
2022-09-28T06:32:59.551Z,0.20
2022-09-28T06:35:28.345Z,0.22
2022-09-28T06:37:54.739Z,0.60
2022-09-28T06:40:22.104Z,0.50
2022-09-28T06:43:11.206Z,0.43
2022-09-28T06:45:38.549Z,0.70
2022-09-28T06:48:05.830Z,0.68
2022-09-28T06:50:37.354Z,0.65
2022-09-28T06:53:12.272Z,0.40
2022-09-28T06:55:39.951Z,0.30
2022-09-28T06:58:10.131Z,0.57
2022-09-28T07:00:40.222Z,5.75
2022-09-28T07:03:14.807Z,0.55
2022-09-28T07:05:54.092Z,0.50
2022-09-28T07:08:24.602Z,0.63
2022-09-28T07:10:56.302Z,0.50
2022-09-28T07:16:14.917Z,0.45
2022-09-28T07:18:42.219Z,0.20
2022-09-28T07:21:11.283Z,0.32
2022-09-28T07:23:52.688Z,0.40
2022-09-28T07:26:23.615Z,0.43
2022-09-28T07:28:50.921Z,0.40
2022-09-28T07:31:17.332Z,0.35
2022-09-28T07:33:43.803Z,0.43
2022-09-28T07:36:10.612Z,0.57
2022-09-28T07:38:38.216Z,0.40
2022-09-28T07:41:14.784Z,0.50
2022-09-28T07:43:41.807Z,0.40
2022-09-28T07:46:11.913Z,0.40
2022-09-28T07:48:43.074Z,0.30
2022-09-28T07:51:10.329Z,0.50
2022-09-28T07:53:38.380Z,0.32
2022-09-28T07:56:07.283Z,0.40
2022-09-28T07:58:36.077Z,0.60
2022-09-28T08:01:05.437Z,0.50
2022-09-28T08:03:31.907Z,0.30
2022-09-28T08:06:00.051Z,0.20
2022-09-28T08:08:27.456Z,0.65
2022-09-28T08:13:27.358Z,0.70
2022-09-28T08:15:54.723Z,8.20
2022-09-28T08:18:21.469Z,1.20
2022-09-28T08:21:06.452Z,2.97
2022-09-28T08:23:32.833Z,0.30
2022-09-28T08:25:59.277Z,0.60
2022-09-28T08:28:25.768Z,0.50
2022-09-28T08:30:52.488Z,0.82
2022-09-28T08:33:21.335Z,0.20
2022-09-28T08:35:54.520Z,0.30
2022-09-28T08:38:20.985Z,1.90
2022-09-28T08:41:06.008Z,0.47
2022-09-28T08:43:53.845Z,1.15
2022-09-28T08:46:26.950Z,0.35
2022-09-28T08:49:30.070Z,1.13
2022-09-28T08:52:02.985Z,0.30
2022-09-28T08:54:38.935Z,0.40
2022-09-28T08:57:11.506Z,0.60
2022-09-28T08:59:49.596Z,0.20
2022-09-28T09:02:22.335Z,0.60
2022-09-28T09:04:51.560Z,0.40
2022-09-28T09:07:20.883Z,0.60
2022-09-28T09:09:54.439Z,0.40
2022-09-28T09:12:58.624Z,0.50
2022-09-28T09:15:39.280Z,0.38
2022-09-28T09:18:22.899Z,0.20
2022-09-28T09:20:55.481Z,0.20
2022-09-28T09:23:35.809Z,0.10
2022-09-28T09:26:15.331Z,0.10
2022-09-28T09:29:13.605Z,0.10
2022-09-28T09:34:13.792Z,0.20
2022-09-28T09:37:04.821Z,0.30
2022-09-28T09:39:37.314Z,0.30
2022-09-28T09:42:18.719Z,1.92
2022-09-28T09:45:18.968Z,0.45
2022-09-28T09:47:53.950Z,0.00
2022-09-28T09:50:30.062Z,0.08
2022-09-28T09:53:02.238Z,0.10
2022-09-28T09:56:06.386Z,0.10
2022-09-28T09:58:41.176Z,0.10
2022-09-28T10:01:13.142Z,0.10
2022-09-28T10:03:46.961Z,0.15
2022-09-28T10:06:28.044Z,0.32
2022-09-28T10:09:16.878Z,0.25
2022-09-28T10:11:45.788Z,0.30
2022-09-28T10:14:17.523Z,0.50
2022-09-28T10:16:45.494Z,0.45
2022-09-28T10:19:13.211Z,0.10
2022-09-28T10:21:41.599Z,0.20
2022-09-28T10:24:17.437Z,0.13
2022-09-28T10:26:50.116Z,0.20
2022-09-28T10:29:21.211Z,0.20
2022-09-28T10:31:52.649Z,0.10
2022-09-28T10:34:26.198Z,0.10
2022-09-28T10:36:55.896Z,0.10
2022-09-28T10:39:33.346Z,0.10
2022-09-28T10:42:05.246Z,0.20
2022-09-28T10:44:47.397Z,0.10
2022-09-28T10:47:17.726Z,0.20
2022-09-28T10:49:47.383Z,0.17
2022-09-28T10:52:41.972Z,0.20
2022-09-28T10:55:20.502Z,0.10
2022-09-28T10:57:47.931Z,0.15
2022-09-28T11:00:29.755Z,0.10
2022-09-28T11:02:56.760Z,0.30
2022-09-28T11:05:29.947Z,0.20
2022-09-28T11:07:59.786Z,0.40
2022-09-28T11:10:31.454Z,0.40
2022-09-28T11:12:58.707Z,0.40
2022-09-28T11:15:32.071Z,0.40
2022-09-28T11:18:22.277Z,0.60
2022-09-28T11:20:49.565Z,0.32
2022-09-28T11:23:23.649Z,0.60
2022-09-28T11:26:04.285Z,0.30
2022-09-28T11:28:33.616Z,0.28
2022-09-28T11:31:02.386Z,0.30
2022-09-28T11:33:43.148Z,0.40
2022-09-28T11:36:18.710Z,0.40
2022-09-28T11:39:26.567Z,0.70
2022-09-28T11:42:02.027Z,0.60
2022-09-28T11:44:41.356Z,0.25
2022-09-28T11:47:33.643Z,0.50
2022-09-28T11:50:06.693Z,0.60
2022-09-28T11:52:39.607Z,0.50
2022-09-28T11:55:11.979Z,0.50
2022-09-28T11:57:43.011Z,0.50
2022-09-28T12:00:18.427Z,0.40
2022-09-28T12:02:51.943Z,0.50
2022-09-28T12:05:42.842Z,0.40
2022-09-28T12:08:16.862Z,0.40
2022-09-28T12:10:55.424Z,0.30
2022-09-28T12:13:29.650Z,0.30
2022-09-28T12:16:32.844Z,0.25
2022-09-28T12:19:18.484Z,0.40
2022-09-28T12:21:53.021Z,0.28
2022-09-28T12:24:41.755Z,0.20
2022-09-28T12:27:23.339Z,0.30
2022-09-28T12:30:04.933Z,0.20
2022-09-28T12:32:37.459Z,0.40
2022-09-28T12:35:31.352Z,0.28
2022-09-28T12:38:17.513Z,0.20
2022-09-28T12:41:10.974Z,0.40
2022-09-28T12:43:58.220Z,0.30
2022-09-28T12:46:49.502Z,0.20
2022-09-28T12:52:52.270Z,0.20
2022-09-28T12:55:29.968Z,0.40
2022-09-28T12:58:36.649Z,0.47
2022-09-28T13:01:24.445Z,0.20
2022-09-28T13:04:13.819Z,0.28
2022-09-28T13:07:12.217Z,0.20
2022-09-28T13:10:22.749Z,0.20
2022-09-28T13:13:19.088Z,0.13
2022-09-28T13:16:10.317Z,0.20
2022-09-28T13:18:45.720Z,0.20
2022-09-28T13:21:28.274Z,0.05
2022-09-28T13:24:14.367Z,0.40
2022-09-28T13:26:47.950Z,0.40
2022-09-28T13:29:20.791Z,0.20
2022-09-28T13:31:57.314Z,0.30
2022-09-28T13:37:14.462Z,0.30
2022-09-28T13:39:44.839Z,0.13
2022-09-28T13:42:40.710Z,0.38
2022-09-28T13:45:22.257Z,0.50
2022-09-28T13:47:54.500Z,0.95
2022-09-28T13:50:38.613Z,0.80
2022-09-28T13:53:08.003Z,0.75
2022-09-28T13:55:56.044Z,0.75
2022-09-28T13:58:33.353Z,0.60
2022-09-28T14:01:06.551Z,0.90
2022-09-28T14:04:11.188Z,0.90
2022-09-28T14:06:42.840Z,0.93
2022-09-28T14:09:16.278Z,1.20
2022-09-28T14:11:53.307Z,1.23
2022-09-28T14:14:29.336Z,1.38
2022-09-28T14:17:23.617Z,1.13
2022-09-28T14:20:07.985Z,0.73
2022-09-28T14:22:39.469Z,0.90
2022-09-28T14:25:26.857Z,1.00
2022-09-28T14:28:01.422Z,0.90
2022-09-28T14:30:42.149Z,2.20
2022-09-28T14:33:20.906Z,2.10
2022-09-28T14:35:56.524Z,1.90
2022-09-28T14:38:49.765Z,1.60
2022-09-28T14:41:17.625Z,1.20
2022-09-28T14:43:43.975Z,0.57
2022-09-28T14:46:19.777Z,0.80
2022-09-28T14:49:04.590Z,0.60
2022-09-28T14:51:31.045Z,0.57
2022-09-28T14:54:02.374Z,1.20
2022-09-28T14:56:33.235Z,0.75
2022-09-28T14:59:00.351Z,0.60
2022-09-28T15:01:27.530Z,3.20
2022-09-28T15:04:00.346Z,4.38
2022-09-28T15:06:29.445Z,1.13
2022-09-28T15:08:56.109Z,0.60
2022-09-28T15:11:25.380Z,0.80
2022-09-28T15:14:06.124Z,0.50
2022-09-28T15:16:33.200Z,0.70
2022-09-28T15:19:19.422Z,2.28
2022-09-28T15:21:47.719Z,0.93
2022-09-28T15:24:27.735Z,0.50
2022-09-28T15:27:04.493Z,0.20
2022-09-28T15:29:33.353Z,0.60
2022-09-28T15:31:59.989Z,1.17
2022-09-28T15:34:52.916Z,1.60
2022-09-28T15:37:23.368Z,2.85
2022-09-28T15:39:52.577Z,0.57
2022-09-28T15:42:20.199Z,0.45
2022-09-28T15:45:02.405Z,0.20
2022-09-28T15:47:31.836Z,0.25
2022-09-28T15:50:02.560Z,0.30
2022-09-28T15:52:40.651Z,0.38
2022-09-28T15:55:22.165Z,0.30
2022-09-28T15:57:48.715Z,0.40
2022-09-28T16:00:21.362Z,0.32
2022-09-28T16:03:06.651Z,0.30
2022-09-28T16:05:42.874Z,0.40
2022-09-28T16:08:26.778Z,0.70
2022-09-28T16:11:06.766Z,0.80
2022-09-28T16:13:53.140Z,0.82
2022-09-28T16:16:26.423Z,0.80
2022-09-28T16:18:55.226Z,0.70
2022-09-28T16:21:33.766Z,0.88
2022-09-28T16:24:00.463Z,1.10
2022-09-28T16:26:38.675Z,1.40
2022-09-28T16:29:25.729Z,1.15
2022-09-28T16:31:53.223Z,2.63
2022-09-28T16:34:23.681Z,1.42
2022-09-28T16:36:50.569Z,0.90
2022-09-28T16:39:18.546Z,1.30
2022-09-28T16:41:55.603Z,1.02
2022-09-28T16:44:28.419Z,1.20
2022-09-28T16:46:57.527Z,1.38
2022-09-28T16:49:25.549Z,1.15
2022-09-28T16:51:52.708Z,1.15
2022-09-28T16:54:40.708Z,1.00
2022-09-28T16:57:11.235Z,1.10
2022-09-28T16:59:40.641Z,0.90
2022-09-28T17:02:46.226Z,0.80
2022-09-28T17:05:15.771Z,1.00
2022-09-28T17:07:44.416Z,0.88
2022-09-28T17:10:30.982Z,0.90
2022-09-28T17:12:57.339Z,0.90
2022-09-28T17:15:25.875Z,0.60
2022-09-28T17:17:52.289Z,0.70
2022-09-28T17:20:22.750Z,0.70
2022-09-28T17:22:50.291Z,0.90
2022-09-28T17:25:17.343Z,1.27
2022-09-28T17:27:46.078Z,1.23
2022-09-28T17:30:13.546Z,1.00
2022-09-28T17:32:44.923Z,0.88
2022-09-28T17:35:24.263Z,1.00
2022-09-28T17:37:51.611Z,0.90
2022-09-28T17:40:24.580Z,0.80
2022-09-28T17:42:55.012Z,0.85
2022-09-28T17:45:22.492Z,0.80
2022-09-28T17:47:49.218Z,0.80
2022-09-28T17:50:21.609Z,0.90
2022-09-28T17:52:52.519Z,1.10
2022-09-28T17:55:24.428Z,1.40
2022-09-28T17:57:50.925Z,2.05
2022-09-28T18:00:17.678Z,1.65
2022-09-28T18:02:44.997Z,1.65
2022-09-28T18:05:14.575Z,1.50
2022-09-28T18:07:47.290Z,1.17
2022-09-28T18:10:17.105Z,1.02
2022-09-28T18:12:43.493Z,0.90
2022-09-28T18:15:10.890Z,0.90
2022-09-28T18:17:39.532Z,0.90
2022-09-28T18:20:07.571Z,0.80
2022-09-28T18:22:34.154Z,1.15
2022-09-28T18:25:00.644Z,2.55
2022-09-28T18:27:30.382Z,6.63
2022-09-28T18:29:56.922Z,10.77
2022-09-28T18:32:29.333Z,5.63
2022-09-28T18:34:55.743Z,4.07
2022-09-28T18:37:22.263Z,2.58
2022-09-28T18:39:49.682Z,2.35
2022-09-28T18:42:16.447Z,3.00
2022-09-28T18:44:42.855Z,2.80
2022-09-28T18:47:15.056Z,2.60
2022-09-28T18:49:45.909Z,1.90
2022-09-28T18:52:13.050Z,1.77
2022-09-28T18:54:40.183Z,1.40
2022-09-28T18:57:06.541Z,1.02
2022-09-28T18:59:32.983Z,1.60
2022-09-28T19:02:01.542Z,1.48
2022-09-28T19:04:28.156Z,1.95
2022-09-28T19:06:55.396Z,2.33
2022-09-28T19:09:23.429Z,3.83
2022-09-28T19:11:50.420Z,3.92
2022-09-28T19:14:16.938Z,4.38
2022-09-28T19:16:44.580Z,4.18
2022-09-28T19:19:13.171Z,3.30
2022-09-28T19:21:40.602Z,3.60
2022-09-28T19:24:07.033Z,3.97
2022-09-28T19:26:33.944Z,3.72
2022-09-28T19:29:02.756Z,2.75
2022-09-28T19:31:30.218Z,2.63
2022-09-28T19:33:56.887Z,2.85
2022-09-28T19:36:24.731Z,3.35
2022-09-28T19:38:55.145Z,1.60
2022-09-28T19:41:45.700Z,1.40
2022-09-28T19:44:24.887Z,1.60
2022-09-28T19:47:07.334Z,1.30
2022-09-28T19:49:39.926Z,1.30
2022-09-28T19:52:15.625Z,1.38
2022-09-28T19:54:44.915Z,1.73
2022-09-28T19:57:15.780Z,2.15
2022-09-28T19:59:43.484Z,1.80
2022-09-28T20:02:11.254Z,1.92
2022-09-28T20:04:37.677Z,2.28
2022-09-28T20:07:04.237Z,2.90
2022-09-28T20:09:31.766Z,2.50
2022-09-28T20:11:58.306Z,2.10
2022-09-28T20:14:28.160Z,2.65
2022-09-28T20:16:58.366Z,2.28
2022-09-28T20:19:24.810Z,2.35
2022-09-28T20:21:51.263Z,2.40
2022-09-28T20:24:17.951Z,2.13
2022-09-28T20:26:45.775Z,3.00
2022-09-28T20:29:12.387Z,2.40
2022-09-28T20:31:38.918Z,2.58
2022-09-28T20:34:06.477Z,3.70
2022-09-28T20:36:33.413Z,3.85
2022-09-28T20:39:03.660Z,3.70
2022-09-28T20:41:35.604Z,3.15
2022-09-28T20:44:05.805Z,3.03
2022-09-28T20:46:33.933Z,3.60
2022-09-28T20:49:00.600Z,3.60
2022-09-28T20:51:27.077Z,3.50
2022-09-28T20:53:56.322Z,1.75
2022-09-28T20:56:37.998Z,1.20
2022-09-28T20:59:07.742Z,1.00
2022-09-28T21:01:34.879Z,0.90
2022-09-28T21:04:03.575Z,0.68
2022-09-28T21:06:32.524Z,0.60
2022-09-28T21:08:59.015Z,0.60
2022-09-28T21:11:27.850Z,0.50
2022-09-28T21:14:00.145Z,0.43
2022-09-28T21:16:28.676Z,0.60
2022-09-28T21:18:55.383Z,0.50
2022-09-28T21:21:22.701Z,0.40
2022-09-28T21:23:53.243Z,0.38
2022-09-28T21:26:25.379Z,0.30
2022-09-28T21:29:12.972Z,0.28
2022-09-28T21:31:40.503Z,0.40
2022-09-28T21:34:13.115Z,0.20
2022-09-28T21:36:40.605Z,0.40
2022-09-28T21:39:10.254Z,0.30
2022-09-28T21:41:36.947Z,0.30
2022-09-28T21:44:03.396Z,0.30
2022-09-28T21:46:34.016Z,0.30
2022-09-28T21:49:01.802Z,0.40
2022-09-28T21:51:28.535Z,0.60
2022-09-28T21:53:55.171Z,0.47
2022-09-28T21:56:23.059Z,0.30
2022-09-28T21:58:50.162Z,0.63
2022-09-28T22:01:19.559Z,0.90
2022-09-28T22:03:54.739Z,0.95
2022-09-28T22:06:23.729Z,0.70
2022-09-28T22:08:50.545Z,0.57
2022-09-28T22:11:22.742Z,0.40
2022-09-28T22:13:52.167Z,0.40
2022-09-28T22:16:20.892Z,0.50
2022-09-28T22:18:48.134Z,0.60
2022-09-28T22:21:17.718Z,0.50
2022-09-28T22:23:44.747Z,0.55
2022-09-28T22:26:12.570Z,0.50
2022-09-28T22:28:39.961Z,0.50
2022-09-28T22:31:06.508Z,0.63
2022-09-28T22:33:34.032Z,0.82
2022-09-28T22:36:00.533Z,0.65
2022-09-28T22:38:28.055Z,0.38
2022-09-28T22:40:56.152Z,0.40
2022-09-28T22:43:23.640Z,0.60
2022-09-28T22:45:51.311Z,0.52
2022-09-28T22:48:18.521Z,0.80
2022-09-28T22:50:50.657Z,0.77
2022-09-28T22:53:17.879Z,0.80
2022-09-28T22:55:44.423Z,0.60
2022-09-28T22:58:10.856Z,0.70
2022-09-28T23:00:38.020Z,0.80
2022-09-28T23:03:04.744Z,0.60
2022-09-28T23:05:31.232Z,0.70
2022-09-28T23:07:57.639Z,0.70
2022-09-28T23:10:24.336Z,0.60
2022-09-28T23:12:53.314Z,0.70
2022-09-28T23:15:20.233Z,0.60
2022-09-28T23:17:53.428Z,1.00
2022-09-28T23:20:21.187Z,0.65
2022-09-28T23:22:48.750Z,0.77
2022-09-28T23:25:17.059Z,0.77
2022-09-28T23:27:50.758Z,0.85
2022-09-28T23:30:20.044Z,0.80
2022-09-28T23:32:46.535Z,1.10
2022-09-28T23:35:16.463Z,0.70
2022-09-28T23:37:42.828Z,1.00
2022-09-28T23:40:09.589Z,0.90
2022-09-28T23:42:36.057Z,0.70
2022-09-28T23:45:02.533Z,0.80
2022-09-28T23:47:29.141Z,0.98
2022-09-28T23:49:55.517Z,1.00
2022-09-28T23:52:21.901Z,0.90
2022-09-28T23:54:48.261Z,0.77
2022-09-28T23:57:14.699Z,0.93
2022-09-28T23:59:41.139Z,0.90
